Cacu, Brazil
Current Conditions -  °F | °C
As of 6:00 PM on Tuesday 25 Nov 2014 (Local Time) from SBGO Reporting Station
Light Rain Light Rain  
Wind Chill: 72°   Ceiling: 8000
Heat Index: 72°   Visibility: 6mi
Dew Point: 66°   Wind: 2mph
Humidity: 83%   Direction: 160°SSE
Pressure: NA   Gusts: NA
Location:  18.56°S, 51.13°W
Report Text: SBGO 252000Z 16002KT 9999 -RA SCT025 FEW030TCU OVC080 22/19 Q1012
Loading
Personal Weather Stations






























Interactive Weather Map New forecast layout! Learn more

10-Day Weather Forecast

Advertisements
Track Severe Weather on mobile